createdAt,value
2023-04-29T00:02:04.333Z,57.74
2023-04-29T00:05:07.747Z,57.82
2023-04-29T00:08:09.675Z,57.59
2023-04-29T00:11:11.238Z,57.78
2023-04-29T00:14:13.545Z,57.66
2023-04-29T00:17:15.282Z,58.03
2023-04-29T00:20:17.045Z,58.25
2023-04-29T00:23:18.814Z,58.17
2023-04-29T00:26:20.374Z,58.14
2023-04-29T00:29:22.158Z,58.22
2023-04-29T00:32:24.523Z,58.56
2023-04-29T00:35:26.165Z,59.42
2023-04-29T00:38:27.909Z,59.15
2023-04-29T00:41:30.046Z,59.03
2023-04-29T00:44:31.755Z,59.09
2023-04-29T00:47:33.379Z,58.57
2023-04-29T00:50:35.600Z,58.81
2023-04-29T00:53:38.092Z,58.77
2023-04-29T00:56:40.435Z,59.15
2023-04-29T00:59:42.206Z,59.21
2023-04-29T01:02:43.862Z,59.31
2023-04-29T01:05:47.655Z,59.64
2023-04-29T01:09:21.889Z,59.91
2023-04-29T01:12:33.836Z,59.77
2023-04-29T01:16:11.847Z,59.57
2023-04-29T01:19:29.752Z,59.63
2023-04-29T01:22:31.457Z,60.09
2023-04-29T01:25:33.267Z,59.84
2023-04-29T01:28:49.402Z,59.90
2023-04-29T01:32:26.864Z,60.14
2023-04-29T01:35:53.499Z,60.16
2023-04-29T01:39:16.986Z,60.19
2023-04-29T01:42:24.790Z,60.39
2023-04-29T01:45:26.630Z,60.36
2023-04-29T01:48:28.358Z,60.52
2023-04-29T01:51:30.247Z,60.51
2023-04-29T01:54:32.152Z,60.63
2023-04-29T01:57:33.740Z,60.72
2023-04-29T02:00:35.333Z,60.98
2023-04-29T02:03:39.350Z,61.20
2023-04-29T02:06:41.253Z,61.00
2023-04-29T02:09:42.821Z,61.09
2023-04-29T02:12:44.516Z,61.34
2023-04-29T02:15:46.072Z,61.27
2023-04-29T02:18:47.734Z,61.33
2023-04-29T02:21:49.319Z,61.41
2023-04-29T02:24:50.958Z,61.28
2023-04-29T02:27:52.534Z,61.43
2023-04-29T02:30:54.107Z,61.57
2023-04-29T02:33:55.919Z,61.35
2023-04-29T02:36:57.407Z,61.60
2023-04-29T02:39:59.106Z,61.51
2023-04-29T02:43:00.997Z,61.55
2023-04-29T02:46:02.761Z,61.62
2023-04-29T02:49:04.531Z,61.71
2023-04-29T02:52:06.040Z,61.37
2023-04-29T02:55:08.282Z,61.84
2023-04-29T02:58:10.450Z,61.75
2023-04-29T03:01:12.162Z,61.79
2023-04-29T03:04:13.772Z,61.81
2023-04-29T03:07:15.627Z,62.06
2023-04-29T03:10:17.129Z,62.08
2023-04-29T03:13:18.789Z,62.02
2023-04-29T03:16:20.378Z,62.39
2023-04-29T03:19:22.468Z,62.59
2023-04-29T03:22:24.174Z,62.45
2023-04-29T03:25:25.891Z,62.59
2023-04-29T03:28:27.459Z,62.70
2023-04-29T03:31:29.185Z,62.81
2023-04-29T03:34:31.087Z,62.57
2023-04-29T03:37:32.655Z,62.77
2023-04-29T03:40:34.367Z,62.68
2023-04-29T03:43:36.195Z,62.55
2023-04-29T03:46:37.960Z,62.40
2023-04-29T03:49:39.709Z,62.64
2023-04-29T03:52:41.376Z,62.99
2023-04-29T03:55:43.025Z,63.32
2023-04-29T03:58:44.571Z,63.52
2023-04-29T04:01:46.237Z,63.83
2023-04-29T04:04:47.938Z,63.92
2023-04-29T04:07:49.810Z,63.90
2023-04-29T04:10:51.452Z,63.88
2023-04-29T04:13:52.975Z,64.01
2023-04-29T04:16:54.678Z,63.98
2023-04-29T04:19:56.190Z,64.00
2023-04-29T04:22:57.881Z,64.02
2023-04-29T04:25:59.374Z,63.68
2023-04-29T04:29:01.106Z,63.67
2023-04-29T04:32:02.879Z,63.61
2023-04-29T04:35:05.213Z,63.78
2023-04-29T04:38:06.876Z,63.85
2023-04-29T04:41:08.582Z,63.92
2023-04-29T04:44:11.023Z,63.90
2023-04-29T04:47:12.674Z,63.93
2023-04-29T04:50:14.167Z,63.86
2023-04-29T04:53:15.825Z,63.94
2023-04-29T04:56:17.639Z,63.98
2023-04-29T04:59:19.212Z,64.02
2023-04-29T05:02:20.799Z,63.98
2023-04-29T05:05:22.516Z,64.13
2023-04-29T05:08:24.799Z,64.01
2023-04-29T05:11:26.530Z,63.95
2023-04-29T05:14:28.212Z,63.98
2023-04-29T05:17:30.097Z,64.11
2023-04-29T05:20:31.704Z,64.22
2023-04-29T05:23:33.240Z,64.16
2023-04-29T05:26:34.831Z,64.33
2023-04-29T05:29:36.350Z,64.16
2023-04-29T05:32:38.110Z,63.97
2023-04-29T05:35:39.832Z,63.92
2023-04-29T05:38:41.447Z,63.98
2023-04-29T05:41:43.296Z,64.17
2023-04-29T05:44:45.060Z,64.20
2023-04-29T05:47:47.356Z,64.06
2023-04-29T05:50:49.076Z,63.84
2023-04-29T05:53:50.792Z,63.81
2023-04-29T05:56:52.489Z,63.64
2023-04-29T05:59:54.376Z,63.63
2023-04-29T06:02:58.969Z,63.36
2023-04-29T06:06:01.453Z,63.45
2023-04-29T06:09:05.222Z,63.36
2023-04-29T06:12:10.746Z,63.41
2023-04-29T06:15:12.686Z,63.71
2023-04-29T06:18:14.384Z,63.92
2023-04-29T06:21:15.989Z,63.49
2023-04-29T06:24:17.687Z,63.36
2023-04-29T06:27:19.355Z,63.18
2023-04-29T06:30:21.315Z,63.13
2023-04-29T06:33:23.001Z,63.45
2023-04-29T06:36:24.659Z,63.42
2023-04-29T06:39:26.279Z,63.42
2023-04-29T06:42:28.120Z,63.85
2023-04-29T06:45:30.090Z,64.03
2023-04-29T06:48:31.703Z,64.28
2023-04-29T06:51:33.291Z,64.23
2023-04-29T06:54:38.074Z,64.19
2023-04-29T06:57:40.183Z,64.29
2023-04-29T07:00:45.296Z,64.26
2023-04-29T07:03:47.162Z,64.29
2023-04-29T07:06:49.199Z,64.41
2023-04-29T07:09:51.274Z,64.47
2023-04-29T07:12:53.486Z,64.81
2023-04-29T07:15:55.165Z,64.65
2023-04-29T07:18:56.952Z,64.29
2023-04-29T07:21:58.756Z,64.37
2023-04-29T07:25:00.518Z,64.06
2023-04-29T07:28:02.244Z,64.03
2023-04-29T07:31:03.992Z,63.84
2023-04-29T07:34:05.808Z,63.57
2023-04-29T07:37:07.633Z,63.74
2023-04-29T07:40:09.501Z,63.40
2023-04-29T07:43:11.085Z,63.38
2023-04-29T07:46:12.715Z,63.37
2023-04-29T07:49:14.424Z,63.43
2023-04-29T07:52:16.105Z,63.14
2023-04-29T07:55:17.787Z,62.95
2023-04-29T07:58:19.363Z,63.04
2023-04-29T08:01:21.004Z,62.73
2023-04-29T08:04:23.146Z,62.46
2023-04-29T08:07:25.001Z,61.67
2023-04-29T08:10:26.619Z,60.58
2023-04-29T08:13:28.271Z,60.38
2023-04-29T08:16:30.103Z,59.42
2023-04-29T08:19:31.768Z,59.61
2023-04-29T08:22:33.501Z,58.81
2023-04-29T08:25:35.141Z,56.88
2023-04-29T08:28:36.859Z,56.50
2023-04-29T08:31:38.510Z,57.46
2023-04-29T08:34:40.407Z,56.68
2023-04-29T08:37:42.058Z,56.71
2023-04-29T08:40:46.223Z,56.38
2023-04-29T08:43:47.821Z,56.40
2023-04-29T08:46:50.026Z,56.61
2023-04-29T08:49:51.777Z,55.85
2023-04-29T08:52:53.371Z,55.01
2023-04-29T08:55:55.918Z,54.09
2023-04-29T08:58:58.245Z,52.65
2023-04-29T09:02:00.485Z,53.51
2023-04-29T09:05:09.150Z,53.96
2023-04-29T09:08:11.901Z,51.85
2023-04-29T09:11:14.155Z,50.30
2023-04-29T09:14:16.236Z,51.47
2023-04-29T09:17:17.973Z,50.74
2023-04-29T09:20:22.674Z,50.37
2023-04-29T09:23:37.189Z,50.17
2023-04-29T09:26:43.174Z,49.42
2023-04-29T09:30:01.240Z,50.50
2023-04-29T09:33:05.122Z,50.59
2023-04-29T09:36:06.854Z,49.76
2023-04-29T09:39:09.647Z,50.08
2023-04-29T09:42:11.265Z,49.70
2023-04-29T09:45:12.921Z,47.89
2023-04-29T09:48:15.791Z,48.64
2023-04-29T09:51:17.432Z,49.36
2023-04-29T09:54:21.598Z,47.99
2023-04-29T09:57:40.026Z,48.23
2023-04-29T10:00:42.875Z,49.10
2023-04-29T10:03:45.946Z,48.79
2023-04-29T10:06:54.880Z,48.65
2023-04-29T10:09:56.819Z,49.40
2023-04-29T10:13:00.413Z,49.67
2023-04-29T10:16:14.902Z,48.68
2023-04-29T10:19:25.601Z,47.16
2023-04-29T10:22:29.553Z,48.15
2023-04-29T10:25:31.602Z,48.26
2023-04-29T10:28:33.575Z,49.01
2023-04-29T10:31:35.614Z,49.18
2023-04-29T10:34:38.246Z,48.08
2023-04-29T10:37:43.957Z,47.61
2023-04-29T10:40:46.378Z,47.40
2023-04-29T10:43:48.043Z,47.56
2023-04-29T10:46:49.750Z,47.97
2023-04-29T10:50:04.613Z,47.38
2023-04-29T10:53:06.204Z,48.08
2023-04-29T10:56:09.826Z,47.55
2023-04-29T10:59:13.036Z,48.35
2023-04-29T11:02:14.648Z,48.80
2023-04-29T11:05:16.350Z,49.12
2023-04-29T11:08:21.446Z,49.19
2023-04-29T11:11:24.422Z,49.59
2023-04-29T11:14:35.763Z,49.70
2023-04-29T11:17:37.880Z,49.22
2023-04-29T11:21:05.761Z,49.13
2023-04-29T11:24:07.416Z,49.90
2023-04-29T11:27:09.340Z,50.14
2023-04-29T11:30:11.512Z,50.23
2023-04-29T11:33:13.609Z,49.94
2023-04-29T11:36:15.417Z,49.73
2023-04-29T11:39:17.112Z,49.71
2023-04-29T11:42:22.652Z,49.58
2023-04-29T11:45:24.297Z,49.90
2023-04-29T11:48:26.490Z,49.15
2023-04-29T11:51:28.114Z,49.60
2023-04-29T11:54:30.411Z,49.72
2023-04-29T11:57:32.116Z,49.72
2023-04-29T12:00:33.855Z,49.97
2023-04-29T12:03:35.800Z,49.97
2023-04-29T12:06:37.650Z,50.03
2023-04-29T12:09:45.988Z,50.20
2023-04-29T12:12:48.207Z,50.21
2023-04-29T12:15:50.712Z,50.33
2023-04-29T12:18:52.828Z,50.04
2023-04-29T12:21:54.388Z,50.25
2023-04-29T12:24:57.232Z,50.21
2023-04-29T12:28:02.461Z,50.28
2023-04-29T12:31:04.199Z,50.34
2023-04-29T12:34:08.259Z,50.24
2023-04-29T12:37:11.540Z,50.31
2023-04-29T12:40:17.256Z,50.26
2023-04-29T12:43:18.879Z,50.63
2023-04-29T12:46:21.197Z,50.72
2023-04-29T12:49:24.846Z,50.77
2023-04-29T12:52:26.468Z,50.66
2023-04-29T12:55:28.171Z,50.66
2023-04-29T12:58:30.677Z,50.55
2023-04-29T13:01:32.351Z,50.61
2023-04-29T13:04:34.148Z,50.93
2023-04-29T13:07:37.123Z,51.00
2023-04-29T13:10:38.919Z,51.10
2023-04-29T13:13:40.617Z,51.06
2023-04-29T13:16:42.290Z,50.94
2023-04-29T13:19:50.390Z,51.14
2023-04-29T13:22:53.256Z,51.22
2023-04-29T13:25:54.945Z,51.33
2023-04-29T13:28:56.568Z,51.20
2023-04-29T13:31:58.295Z,51.02
2023-04-29T13:35:00.044Z,51.10
2023-04-29T13:38:02.343Z,50.91
2023-04-29T13:41:05.572Z,50.97
2023-04-29T13:44:21.584Z,51.25
2023-04-29T13:47:31.725Z,51.07
2023-04-29T13:51:00.898Z,50.89
2023-04-29T14:00:15.180Z,51.32
2023-04-29T14:03:21.797Z,51.00
2023-04-29T14:06:23.604Z,50.97
2023-04-29T14:09:25.208Z,51.24
2023-04-29T14:12:26.808Z,51.21
2023-04-29T14:15:28.593Z,51.31
2023-04-29T14:18:30.336Z,51.57
2023-04-29T14:21:32.261Z,51.53
2023-04-29T14:24:33.852Z,51.46
2023-04-29T14:27:35.621Z,51.58
2023-04-29T14:30:37.262Z,51.74
2023-04-29T14:33:39.579Z,51.80
2023-04-29T14:36:41.489Z,51.96
2023-04-29T14:39:43.067Z,52.15
2023-04-29T14:42:44.759Z,51.95
2023-04-29T14:45:46.378Z,52.30
2023-04-29T14:48:48.079Z,52.65
2023-04-29T14:51:49.658Z,53.25
2023-04-29T14:54:51.541Z,53.26
2023-04-29T14:57:53.391Z,53.94
2023-04-29T15:00:55.251Z,54.18
2023-04-29T15:03:57.081Z,54.34
2023-04-29T15:06:58.795Z,54.75
2023-04-29T15:10:00.418Z,54.93
2023-04-29T15:13:02.416Z,55.18
2023-04-29T15:16:04.444Z,55.67
2023-04-29T15:19:06.109Z,55.82
2023-04-29T15:22:07.750Z,55.95
2023-04-29T15:25:09.617Z,56.14
2023-04-29T15:28:11.215Z,56.55
2023-04-29T15:31:13.180Z,57.20
2023-04-29T15:34:15.039Z,57.49
2023-04-29T15:37:16.630Z,57.70
2023-04-29T15:40:18.447Z,58.12
2023-04-29T15:43:20.028Z,58.32
2023-04-29T15:46:21.733Z,58.41
2023-04-29T15:49:24.651Z,58.40
2023-04-29T15:52:26.485Z,58.88
2023-04-29T15:55:28.213Z,59.07
2023-04-29T15:58:30.032Z,59.15
2023-04-29T16:01:31.983Z,59.17
2023-04-29T16:04:34.727Z,59.51
2023-04-29T16:07:36.875Z,59.76
2023-04-29T16:10:38.656Z,59.84
2023-04-29T16:13:40.486Z,59.67
2023-04-29T16:16:42.271Z,59.90
2023-04-29T16:19:43.955Z,59.86
2023-04-29T16:22:45.556Z,59.99
2023-04-29T16:25:47.151Z,59.90
2023-04-29T16:28:48.822Z,60.10
2023-04-29T16:31:50.711Z,60.20
2023-04-29T16:34:53.016Z,60.26
2023-04-29T16:37:55.107Z,60.13
2023-04-29T16:40:56.766Z,60.07
2023-04-29T16:43:58.593Z,60.20
2023-04-29T16:47:00.356Z,60.25
2023-04-29T16:50:02.000Z,60.17
2023-04-29T16:53:04.294Z,60.43
2023-04-29T16:56:05.985Z,60.40
2023-04-29T16:59:07.770Z,60.56
2023-04-29T17:02:09.451Z,60.66
2023-04-29T17:05:11.224Z,60.76
2023-04-29T17:08:12.908Z,60.98
2023-04-29T17:11:14.592Z,61.09
2023-04-29T17:14:16.355Z,61.07
2023-04-29T17:17:18.137Z,61.30
2023-04-29T17:20:20.150Z,61.45
2023-04-29T17:23:21.903Z,61.42
2023-04-29T17:26:23.544Z,61.73
2023-04-29T17:29:25.784Z,61.85
2023-04-29T17:32:27.638Z,62.08
2023-04-29T17:35:29.287Z,62.24
2023-04-29T17:38:31.874Z,62.35
2023-04-29T17:41:33.499Z,62.31
2023-04-29T17:44:35.102Z,62.27
2023-04-29T17:47:36.723Z,62.81
2023-04-29T17:50:38.490Z,62.99
2023-04-29T17:53:40.144Z,63.02
2023-04-29T17:56:41.818Z,63.13
2023-04-29T17:59:43.473Z,63.14
2023-04-29T18:02:45.411Z,63.31
2023-04-29T18:05:47.101Z,63.54
2023-04-29T18:08:49.106Z,63.70
2023-04-29T18:11:50.717Z,63.75
2023-04-29T18:14:52.546Z,63.69
2023-04-29T18:17:54.149Z,63.80
2023-04-29T18:20:55.813Z,63.67
2023-04-29T18:23:57.577Z,63.89
2023-04-29T18:26:59.201Z,64.10
2023-04-29T18:30:01.322Z,64.28
2023-04-29T18:33:03.226Z,64.64
2023-04-29T18:36:05.162Z,64.65
2023-04-29T18:39:06.841Z,64.76
2023-04-29T18:42:08.676Z,64.60
2023-04-29T18:45:10.788Z,64.52
2023-04-29T18:48:12.523Z,64.57
2023-04-29T18:51:14.428Z,64.86
2023-04-29T18:54:17.845Z,64.76
2023-04-29T18:57:19.491Z,64.99
2023-04-29T19:00:21.097Z,65.28
2023-04-29T19:03:22.778Z,65.43
2023-04-29T19:06:24.638Z,65.51
2023-04-29T19:09:27.091Z,65.59
2023-04-29T19:12:28.995Z,65.56
2023-04-29T19:15:30.717Z,65.98
2023-04-29T19:18:32.392Z,66.00
2023-04-29T19:21:34.156Z,65.96
2023-04-29T19:24:35.857Z,65.92
2023-04-29T19:27:37.580Z,65.76
2023-04-29T19:30:39.257Z,66.40
2023-04-29T19:33:41.327Z,66.99
2023-04-29T19:36:42.924Z,67.34
2023-04-29T19:39:44.511Z,67.10
2023-04-29T19:42:46.185Z,67.38
2023-04-29T19:45:48.025Z,67.38
2023-04-29T19:48:49.686Z,67.63
2023-04-29T19:51:51.438Z,67.49
2023-04-29T19:54:53.199Z,67.79
2023-04-29T19:57:54.869Z,67.36
2023-04-29T20:00:56.635Z,67.65
2023-04-29T20:03:58.344Z,67.65
2023-04-29T20:06:59.967Z,67.86
2023-04-29T20:10:01.606Z,67.72
2023-04-29T20:13:03.232Z,68.53
2023-04-29T20:16:05.118Z,69.33
2023-04-29T20:19:06.816Z,69.34
2023-04-29T20:22:08.420Z,68.98
2023-04-29T20:25:10.238Z,69.21
2023-04-29T20:28:12.271Z,69.35
2023-04-29T20:31:14.009Z,69.32
2023-04-29T20:34:15.862Z,69.50
2023-04-29T20:37:17.553Z,69.25
2023-04-29T20:40:19.622Z,69.60
2023-04-29T20:43:21.184Z,70.74
2023-04-29T20:46:25.288Z,70.31
2023-04-29T20:49:27.695Z,70.21
2023-04-29T20:52:29.384Z,70.20
2023-04-29T20:55:31.191Z,70.40
2023-04-29T20:58:32.841Z,70.48
2023-04-29T21:01:35.562Z,70.72
2023-04-29T21:04:40.411Z,70.24
2023-04-29T21:07:42.053Z,70.67
2023-04-29T21:10:43.739Z,70.78
2023-04-29T21:13:45.453Z,70.95
2023-04-29T21:16:47.109Z,70.84
2023-04-29T21:19:48.771Z,70.87
2023-04-29T21:22:50.526Z,71.06
2023-04-29T21:25:52.259Z,71.00
2023-04-29T21:28:53.976Z,71.12
2023-04-29T21:31:55.755Z,71.13
2023-04-29T21:34:57.781Z,70.89
2023-04-29T21:37:59.436Z,71.08
2023-04-29T21:41:01.374Z,71.59
2023-04-29T21:44:04.866Z,71.65
2023-04-29T21:47:07.167Z,71.40
2023-04-29T21:50:09.769Z,71.51
2023-04-29T21:53:14.405Z,71.35
2023-04-29T21:56:18.352Z,71.45
2023-04-29T21:59:19.997Z,71.49
2023-04-29T22:02:21.766Z,71.45
2023-04-29T22:05:23.672Z,71.54
2023-04-29T22:08:25.378Z,71.60
2023-04-29T22:11:27.060Z,71.71
2023-04-29T22:14:28.872Z,71.68
2023-04-29T22:17:30.501Z,71.81
2023-04-29T22:20:32.301Z,71.98
2023-04-29T22:23:34.084Z,71.79
2023-04-29T22:26:35.796Z,72.14
2023-04-29T22:29:37.393Z,72.00
2023-04-29T22:32:39.073Z,71.99
2023-04-29T22:35:40.751Z,71.89
2023-04-29T22:38:42.535Z,72.04
2023-04-29T22:41:44.235Z,72.87
2023-04-29T22:44:45.870Z,73.65
2023-04-29T22:47:47.560Z,73.66
2023-04-29T22:50:57.794Z,73.93
2023-04-29T22:53:59.484Z,73.37
2023-04-29T22:57:01.283Z,72.95
2023-04-29T23:00:02.961Z,73.24
2023-04-29T23:03:04.565Z,74.05
2023-04-29T23:06:06.414Z,74.83
2023-04-29T23:09:08.121Z,73.98
2023-04-29T23:12:09.712Z,74.23
2023-04-29T23:15:11.465Z,74.20
2023-04-29T23:18:13.429Z,73.87
2023-04-29T23:21:15.100Z,73.57
2023-04-29T23:24:17.857Z,73.49
2023-04-29T23:27:19.508Z,73.75
2023-04-29T23:30:21.660Z,73.65
2023-04-29T23:33:23.994Z,73.86
2023-04-29T23:36:25.713Z,73.88
2023-04-29T23:39:27.291Z,74.16
2023-04-29T23:42:28.968Z,74.30
2023-04-29T23:45:30.846Z,74.38
2023-04-29T23:48:32.539Z,74.50
2023-04-29T23:51:34.136Z,74.33
2023-04-29T23:54:36.038Z,74.49
2023-04-29T23:57:37.735Z,74.85
